CST,Max TemperatureF,Mean TemperatureF,Min TemperatureF,Max Dew PointF,MeanDew PointF,Min DewpointF,Max Humidity, Mean Humidity, Min Humidity, Max Sea Level PressureIn, Mean Sea Level PressureIn, Min Sea Level PressureIn, Max VisibilityMiles, Mean VisibilityMiles, Min VisibilityMiles, Max Wind SpeedMPH, Mean Wind SpeedMPH, Max Gust SpeedMPH,PrecipitationIn, CloudCover, Events, WindDirDegrees
2013-1-1,54,45,36,55,43,31,100,92,73,30.22,30.12,29.99,10,8,1,14,5,18,0.08,5,Rain,1
2013-1-2,43,34,26,30,28,25,97,77,54,30.30,30.25,30.20,10,10,10,10,6,,0.00,0,,9
2013-1-3,41,33,25,30,28,24,96,74,62,30.42,30.36,30.28,10,10,10,12,4,,0.00,7,Rain,28
2013-1-4,39,36,32,37,35,29,100,97,67,30.48,30.40,30.35,10,8,1,8,2,,0.07,8,Rain-Snow,74
2013-1-5,57,44,32,41,37,32,100,87,46,30.35,30.28,30.19,10,10,3,7,1,,0.01,4,,317
2013-1-6,56,41,26,32,28,26,100,72,31,30.39,30.32,30.28,10,10,10,13,3,16,0.00,0,,358
2013-1-7,52,38,23,36,30,24,99,77,48,30.31,30.18,30.03,10,10,10,9,2,,0.00,2,,140
2013-1-8,52,48,43,52,47,38,100,99,83,30.02,29.95,29.87,10,4,1,10,4,21,1.18,8,Rain-Thunderstorm,57
2013-1-9,54,52,49,55,52,49,100,99,95,30.04,29.97,29.87,10,10,3,28,10,38,0.90,7,Rain-Thunderstorm,23
2013-1-10,60,50,39,48,42,39,100,81,51,30.04,30.01,29.98,10,10,10,21,8,30,0.00,1,,254
2013-1-11,69,54,39,63,52,40,100,85,65,30.00,29.91,29.83,10,10,7,20,6,25,0.03,2,,202
2013-1-12,68,55,42,65,56,32,100,86,59,29.93,29.79,29.69,10,8,3,18,7,25,0.00,8,Rain,200
2013-1-13,47,39,31,32,28,24,78,66,46,30.16,30.08,29.93,10,10,10,18,12,22,0.00,2,,2
2013-1-14,45,36,27,29,25,21,76,66,47,30.21,30.14,30.07,10,10,10,14,8,17,0.00,1,,42
2013-1-15,36,32,29,32,29,20,95,84,67,30.23,30.13,30.07,10,10,7,17,10,23,0.00,6,Rain,359
2013-1-16,49,35,21,26,21,16,91,63,29,30.31,30.24,30.17,10,10,10,18,6,26,0.00,0,,288
2013-1-17,61,44,26,36,30,24,95,69,34,30.48,30.40,30.29,10,10,10,13,4,17,0.00,0,,317
2013-1-18,61,43,25,35,31,25,99,71,36,30.49,30.40,30.29,10,10,10,10,2,17,0.00,0,,199
2013-1-19,64,47,30,45,37,28,100,77,44,30.29,30.22,30.15,10,10,7,18,4,24,0.00,0,,223
2013-1-20,69,50,30,46,38,31,100,74,31,30.24,30.17,30.09,10,10,10,9,3,,0.00,0,,251
2013-1-21,67,50,34,53,44,34,100,83,51,30.25,30.18,30.14,10,9,0,7,1,,0.00,3,Fog,360
2013-1-22,67,52,37,49,44,38,100,77,43,30.29,30.24,30.20,10,10,10,20,3,24,0.00,2,,194
2013-1-23,71,55,39,56,50,40,100,86,54,30.33,30.26,30.21,10,9,1,15,4,20,0.00,2,,211
2013-1-24,76,60,43,61,54,43,100,83,48,30.27,30.20,30.12,10,8,0,14,4,18,0.00,2,Fog,218
2013-1-25,74,64,54,60,57,50,100,82,53,30.16,30.11,30.06,10,10,10,10,7,17,0.00,2,,214
2013-1-26,63,55,47,59,53,47,100,94,83,30.18,30.12,30.07,10,7,0,9,4,,0.00,6,Fog,93
2013-1-27,75,66,57,64,59,56,97,83,55,30.09,30.03,29.96,10,10,10,21,10,29,0.00,6,,179
2013-1-28,74,70,65,66,64,62,97,85,67,30.04,29.97,29.88,10,10,7,24,11,32,0.00,8,,175
2013-1-29,78,64,50,66,53,20,100,69,30,29.88,29.74,29.56,10,9,4,24,14,34,0.03,4,Rain-Thunderstorm,220
2013-1-30,53,40,27,28,20,14,80,41,22,30.21,30.06,29.80,10,10,10,32,17,43,0.00,0,,316
2013-1-31,62,44,25,28,23,20,84,52,22,30.28,30.22,30.17,10,10,10,17,5,26,0.00,0,,248